Airfield :







YOU CAN JOIN US ON...

 
LOGIN :

Register | Disclaimer

   EN    FR    IT 

 









Legend :    VFR   Marginal VFR   IFR   Intensive IFR   Very Intensive IFR
Visi :
Ceiling :
>= 8 km
>= 3000ft
5 to 8 km
1000 to 3000 ft
1500m to 5 km
500 to 1000 ft
800 to 1500m
200 to 500 ft
< 800m
< 200 ft
Symbols :   Thunderstorms  Fog  Heavy snow  Heavy precipitations  Wind > 20 kt






- Airport Elevation : 352 ft


KAUG - Augusta State

CURRENT METAR :
  • 301253Z AUTO 03013KT 10SM CLR M01/M08 A2995 RMK AO2 SLP145 T10061083

EXPIRED METARs :
  • 301153Z AUTO 02013G20KT 10SM FEW120 M01/M08 A2991 RMK AO2 SLP133 70024 T10061083 10011 21006 53012
  • 301053Z AUTO 03011G22KT 10SM SCT110 M01/M08 A2988 RMK AO2 SLP121 T10061083

TAF KAUG
Valid from the 30 at 12:00 until the 31 at 12:00 UTC


301134Z 3012/3112 02011G21KT P6SM SCT100
FM301900 01009KT P6SM SCT190
FM310400 VRB04KT P6SM SKC
KZBW FIR / North America



MET'MAP, your aeronautical weather chart ! - Copyright ORBIFLY December 2007 - Disclaimer

ORBIFLY MET'MAP TEAM :

Programming & Development : Alexandra Zaïnal
Concept & original design : Baudouin d'Aumeries
Assistance for programming : Marc-Olivier Méhu
Technical & hardware support : Manuel Goepfert

Contact : metmap@orbifly.com




SOURCES & CREDITS :

   NOAA